Casper, WY

2:54 PM MDT on October 25, 2014 (GMT -0600)
Casper Mountain Foothills | Change Station
CLOSE
Current Station
Personal Weather Station
Location: Casper, WY
Elevation: 5334 ft
Nearby Weather Stations

Elev 5334 ft 42.83 °N, 106.31 °W | Updated 1 minute ago

Clear
Clear
76.1 °F
Feels Like 76 °F
N
4.0
Wind Variable Wind from WSW
Gusts 6.0 mph

Today
High -- | Low -- °F
--% Chance of Precip.
Yesterday
High -- | Low -- °F
Precip. -- in
7:30 AM 6:07 PM
Waxing Crescent, 4% visible
Pressure 29.93 in
Visibility 10.0 miles
Clouds Clear
Heat Index 76 °F
Dew Point 25 °F
Humidity 15%
Rainfall 0.00 in
Snow Depth Not available.
UV 4 out of 12
Pollen 2.50 out of 12
Air Quality Not available.
Flu Activity Sporadic
METAR KCPR 251953Z AUTO 22017G24KT 10SM CLR 24/M03 A3006 RMK AO2 SLP133 T02441033

More Conditions Fewer Conditions

Pressure 29.93 in
Visibility 10.0 miles
Clouds Clear
Heat Index 76 °F
Dew Point 25 °F
Humidity 15%
Rainfall 0.00 in
Snow Depth Not available.
UV 4 out of 12
Pollen 2.50 out of 12
Air Quality Not available.
Flu Activity Sporadic
METAR KCPR 251953Z AUTO 22017G24KT 10SM CLR 24/M03 A3006 RMK AO2 SLP133 T02441033

More Conditions Fewer Conditions

10-Day Weather Forecast

Almanac

Astronomy

Oct. 25, 2014 Rise Set
Actual Time 7:30 AM MDT 6:07 PM MDT
Civil Twilight 7:01 AM MDT 6:36 PM MDT
Nautical Twilight 6:28 AM MDT 7:09 PM MDT
Astronomical Twilight 5:55 AM MDT 7:42 PM MDT
Moon 9:14 AM MDT 7:30 PM MDT
Length of Visible Light 11h 34m
Length of Day
10h 36m
Tomorrow will be 2m 41s shorter.
Waxing Crescent, 4% of the Moon is Illuminated
Today
Waxing Crescent
Oct 30
First Quarter
Nov 6
Full
Nov 14
Last Quarter
Nov 22
New

Today's Extremes

State Highs State Lows

Community

WunderPhotos

Upload Photos

1,764,989 photos uploaded!

Nearby

Snow Depth

Station Depth Elevation
Reno Hill 0 in 8500 ft
Windy Peak 0 in 7900 ft
Sand Lake 4 in 10050 ft
Cinnabar Park 0 in 9690 ft
Old Battle 1 in 9920 ft

Earthquake Activity

City Distance Mag. Time & Date
No recent earthquake activity has been reported nearby.
Minimum magnitude displayed is 2.5.

Coastal Water Temperatures

Place Temperature
No Stations Reporting

Nearby Weather Stations